Welcome to Northern Hawkes Bay. New Zealand.
PWS Header
      nz Flag



Hit Counter


W3C Valid W3C Valid logo


    Wairoa

Select any of the Stations below to visit their websites.










Historic Data from Weather Underground
Select the location of interest below. Wairoa is the default. Please have patience, this Data is slow to load in.
Northern Hawkes Bay Historical Data
Daily Summary for September 27, 2017 Units:  Metric    English   Both
« Previous Day
Next Day »
Daily Weekly Monthly Yearly Custom
  High: Low: Average:
Temperature: 16.9 °C 10.6 °C 12.3 °C
Dew Point: 12.2 °C 9.8 °C 11.3 °C
Humidity: 99% 63% 94%
Wind Speed: 28.0km/h 0.0km/h 7.8km/h
Wind Gust: 41.7km/h - -
Wind- - SSW
Pressure: 1013.1 hPa 1009.0 hPa -
Precipitation: 10.4 mm    
Historical Graphs
 
 
Tabular Data for September 27, 2017
Time Temperature Dew Point Pressure Wind Wind Speed Wind Gust Humidity Rainfall Rate (Hourly) solar
00:01 16.9 °C 9.8 °C 1010.4 hPa NE 3.5 km/h 6.1 km/h 63% 0.0 mm 122 W/m2
00:06 16.7 °C 10.1 °C 1010.4 hPa NE 1.1 km/h 7.2 km/h 65% 0.0 mm 122 W/m2
00:11 16.9 °C 10.3 °C 1010.4 hPa NE 2.6 km/h 7.2 km/h 65% 0.0 mm 114 W/m2
00:16 16.7 °C 10.1 °C 1010.4 hPa Calm   6.1 km/h 65% 0.0 mm 113 W/m2
00:21 16.9 °C 10.5 °C 1010.4 hPa Calm   5.0 km/h 66% 0.0 mm 103 W/m2
00:26 16.9 °C 10.5 °C 1010.4 hPa Calm   3.5 km/h 66% 0.0 mm 99 W/m2
00:31 16.9 °C 10.5 °C 1010.4 hPa NE 3.5 km/h 6.1 km/h 66% 0.0 mm 93 W/m2
00:36 16.6 °C 10.2 °C 1010.4 hPa NE 2.6 km/h 7.2 km/h 66% 0.0 mm 87 W/m2
00:41 16.6 °C 10.4 °C 1010.4 hPa Calm   7.2 km/h 67% 0.0 mm 82 W/m2
00:46 16.7 °C 10.6 °C 1010.4 hPa Calm   3.5 km/h 67% 0.0 mm 79 W/m2
00:51 16.6 °C 10.4 °C 1010.7 hPa NE 2.6 km/h 5.0 km/h 67% 0.0 mm 72 W/m2
00:56 16.4 °C 10.3 °C 1010.7 hPa ENE 1.1 km/h 5.0 km/h 67% 0.0 mm 67 W/m2
01:01 16.2 °C 10.3 °C 1010.7 hPa ENE 5.0 km/h 7.2 km/h 68% 0.0 mm 58 W/m2
01:06 16.0 °C 10.3 °C 1011.1 hPa ENE 6.1 km/h 8.7 km/h 69% 0.0 mm 51 W/m2
01:11 15.8 °C 10.6 °C 1010.7 hPa ENE 2.6 km/h 11.1 km/h 71% 0.0 mm 41 W/m2
01:16 15.7 °C 10.9 °C 1011.1 hPa East 3.5 km/h 11.1 km/h 73% 0.0 mm 36 W/m2
01:21 15.5 °C 10.9 °C 1011.1 hPa East 2.6 km/h 7.2 km/h 74% 0.0 mm 32 W/m2
01:26 15.5 °C 11.3 °C 1011.1 hPa East 1.1 km/h 6.1 km/h 76% 0.0 mm 28 W/m2
01:31 15.4 °C 11.4 °C 1011.1 hPa Calm   5.0 km/h 77% 0.0 mm 24 W/m2
01:36 15.4 °C 11.4 °C 1011.1 hPa Calm   5.0 km/h 77% 0.0 mm 21 W/m2
01:41 15.3 °C 11.5 °C 1011.1 hPa Calm   1.1 km/h 78% 0.0 mm 18 W/m2
01:46 15.2 °C 11.6 °C 1011.1 hPa Calm   2.6 km/h 79% 0.0 mm 12 W/m2
01:51 15.1 °C 11.7 °C 1011.1 hPa Calm   2.6 km/h 80% 0.0 mm 7 W/m2
01:56 14.9 °C 11.8 °C 1011.4 hPa Calm   2.6 km/h 82% 0.0 mm 3 W/m2
02:01 14.6 °C 11.8 °C 1011.1 hPa Calm   3.5 km/h 83% 0.0 mm 1 W/m2
02:06 14.4 °C 11.7 °C 1011.4 hPa Calm   3.5 km/h 84% 0.0 mm 0 W/m2
02:11 14.1 °C 11.4 °C 1011.4 hPa Calm   1.1 km/h 84% 0.0 mm 0 W/m2
02:16 13.9 °C 11.6 °C 1011.1 hPa Calm   2.6 km/h 86% 0.0 mm 0 W/m2
02:21 13.9 °C 11.6 °C 1011.4 hPa Calm   2.6 km/h 86% 0.0 mm 0 W/m2
02:26 13.9 °C 11.8 °C 1011.4 hPa South 1.1 km/h 2.6 km/h 87% 0.0 mm 0 W/m2
02:31 13.7 °C 11.8 °C 1011.4 hPa Calm   3.5 km/h 88% 0.0 mm 0 W/m2
02:36 13.6 °C 11.8 °C 1011.4 hPa Calm   3.5 km/h 89% 0.0 mm 0 W/m2
02:41 13.5 °C 11.9 °C 1011.4 hPa SSE 2.6 km/h 5.0 km/h 90% 0.0 mm 0 W/m2
02:46 13.5 °C 11.9 °C 1011.4 hPa Calm   6.1 km/h 90% 0.0 mm 0 W/m2
02:51 13.4 °C 11.8 °C 1011.4 hPa Calm   6.1 km/h 90% 0.0 mm 0 W/m2
02:56 13.3 °C 11.7 °C 1011.7 hPa Calm     90% 0.0 mm 0 W/m2
03:01 13.2 °C 11.6 °C 1011.7 hPa Calm   2.6 km/h 90% 0.0 mm 0 W/m2
03:06 13.1 °C 11.5 °C 1012.1 hPa Calm   2.6 km/h 90% 0.0 mm 0 W/m2
03:11 13.0 °C 11.4 °C 1011.7 hPa Calm   1.1 km/h 90% 0.0 mm 0 W/m2
03:16 13.1 °C 11.5 °C 1012.1 hPa Calm   1.1 km/h 90% 0.0 mm 0 W/m2
03:21 13.0 °C 11.6 °C 1012.1 hPa Calm   1.1 km/h 91% 0.0 mm 0 W/m2
03:26 13.0 °C 11.6 °C 1012.1 hPa Calm   1.1 km/h 91% 0.0 mm 0 W/m2
03:31 13.1 °C 11.8 °C 1012.1 hPa Calm   1.1 km/h 92% 0.0 mm 0 W/m2
03:36 13.0 °C 11.7 °C 1012.1 hPa Calm   1.1 km/h 92% 0.0 mm 0 W/m2
03:41 12.9 °C 11.6 °C 1012.1 hPa Calm   1.1 km/h 92% 0.0 mm 0 W/m2
03:46 12.8 °C 11.6 °C 1012.4 hPa Calm   1.1 km/h 92% 0.0 mm 0 W/m2
03:51 12.7 °C 11.4 °C 1012.4 hPa Calm   1.1 km/h 92% 0.0 mm 0 W/m2
03:56 12.6 °C 11.3 °C 1012.4 hPa Calm     92% 0.0 mm 0 W/m2
04:01 12.4 °C 11.2 °C 1012.1 hPa Calm     92% 0.0 mm 0 W/m2
04:06 12.3 °C 11.2 °C 1012.4 hPa Calm     93% 0.0 mm 0 W/m2
04:11 12.2 °C 11.1 °C 1012.4 hPa Calm     93% 0.0 mm 0 W/m2
04:16 12.1 °C 11.0 °C 1012.4 hPa Calm     93% 0.0 mm 0 W/m2
04:21 12.1 °C 11.2 °C 1012.8 hPa Calm     94% 0.0 mm 0 W/m2
04:26 12.1 °C 11.3 °C 1012.8 hPa Calm   2.6 km/h 95% 0.0 mm 0 W/m2
04:31 12.1 °C 11.3 °C 1012.8 hPa Calm   2.6 km/h 95% 0.0 mm 0 W/m2
04:36 12.1 °C 11.5 °C 1012.8 hPa North 1.1 km/h 3.5 km/h 96% 0.0 mm 0 W/m2
04:41 12.1 °C 11.5 °C 1013.1 hPa North 1.1 km/h 3.5 km/h 96% 0.0 mm 0 W/m2
04:46 12.1 °C 11.7 °C 1013.1 hPa Calm   3.5 km/h 97% 0.0 mm 0 W/m2
04:51 12.0 °C 11.6 °C 1013.1 hPa NNW 1.1 km/h 3.5 km/h 97% 0.0 mm 0 W/m2
04:56 12.0 °C 11.6 °C 1013.1 hPa Calm   3.5 km/h 97% 0.0 mm 0 W/m2
05:01 11.9 °C 11.6 °C 1013.1 hPa NW 1.1 km/h 3.5 km/h 98% 0.0 mm 0 W/m2
05:06 11.8 °C 11.5 °C 1013.1 hPa NW 1.1 km/h 3.5 km/h 98% 0.0 mm 0 W/m2
05:11 11.7 °C 11.4 °C 1013.1 hPa Calm   3.5 km/h 98% 0.0 mm 0 W/m2
05:16 11.6 °C 11.3 °C 1013.1 hPa Calm   2.6 km/h 98% 0.0 mm 0 W/m2
05:21 11.6 °C 11.3 °C 1013.1 hPa Calm   2.6 km/h 98% 0.0 mm 0 W/m2
05:26 11.5 °C 11.2 °C 1013.1 hPa Calm   2.6 km/h 98% 0.0 mm 0 W/m2
05:31 11.5 °C 11.2 °C 1013.1 hPa Calm   2.6 km/h 98% 0.0 mm 0 W/m2
05:36 11.4 °C 11.1 °C 1013.1 hPa Calm   2.6 km/h 98% 0.0 mm 0 W/m2
05:41 11.4 °C 11.1 °C 1013.1 hPa Calm   2.6 km/h 98% 0.0 mm 0 W/m2
05:46 11.3 °C 11.0 °C 1013.1 hPa Calm   2.6 km/h 98% 0.0 mm 0 W/m2
05:51 11.1 °C 10.8 °C 1012.8 hPa Calm   1.1 km/h 98% 0.0 mm 0 W/m2
05:56 10.9 °C 10.8 °C 1012.8 hPa Calm     99% 0.0 mm 0 W/m2
05:59 10.9 °C 10.8 °C 1012.8 hPa Calm     99% 0.0 mm 0 W/m2
06:05 10.9 °C 10.8 °C 1012.8 hPa Calm   1.1 km/h 99% 0.0 mm 0 W/m2
06:24 10.9 °C 10.8 °C 1012.8 hPa NNW 2.6 km/h 3.5 km/h 99% 0.0 mm 0 W/m2
06:29 10.9 °C 10.8 °C 1012.8 hPa North 1.1 km/h 3.5 km/h 99% 0.0 mm 0 W/m2
06:35 10.9 °C 10.8 °C 1012.8 hPa Calm   3.5 km/h 99% 0.0 mm 0 W/m2
06:40 10.8 °C 10.7 °C 1012.8 hPa Calm   2.6 km/h 99% 0.0 mm 0 W/m2
06:45 10.8 °C 10.7 °C 1012.8 hPa Calm   2.6 km/h 99% 0.0 mm 0 W/m2
06:50 10.7 °C 10.6 °C 1012.8 hPa Calm   1.1 km/h 99% 0.0 mm 0 W/m2
06:55 10.7 °C 10.6 °C 1012.8 hPa Calm   1.1 km/h 99% 0.0 mm 0 W/m2
07:00 10.7 °C 10.6 °C 1012.8 hPa Calm     99% 0.0 mm 0 W/m2
07:05 10.7 °C 10.6 °C 1012.8 hPa Calm     99% 0.0 mm 0 W/m2
07:10 10.7 °C 10.6 °C 1012.8 hPa Calm     99% 0.0 mm 0 W/m2
07:15 10.7 °C 10.6 °C 1012.8 hPa Calm     99% 0.0 mm 0 W/m2
07:20 10.6 °C 10.4 °C 1012.8 hPa Calm     99% 0.0 mm 0 W/m2
07:25 10.6 °C 10.4 °C 1012.8 hPa Calm   2.6 km/h 99% 0.0 mm 0 W/m2
07:30 10.7 °C 10.6 °C 1012.8 hPa Calm   3.5 km/h 99% 0.0 mm 0 W/m2
07:35 10.7 °C 10.6 °C 1012.8 hPa Calm   3.5 km/h 99% 0.0 mm 0 W/m2
07:40 10.7 °C 10.6 °C 1012.8 hPa Calm   2.6 km/h 99% 0.0 mm 0 W/m2
08:01 10.9 °C 10.8 °C 1012.8 hPa NNE 1.1 km/h 2.6 km/h 99% 0.0 mm 0 W/m2
08:06 10.9 °C 10.8 °C 1012.8 hPa Calm   3.5 km/h 99% 0.0 mm 0 W/m2
08:11 10.9 °C 10.8 °C 1012.8 hPa Calm   3.5 km/h 99% 0.0 mm 0 W/m2
08:16 10.9 °C 10.8 °C 1012.8 hPa Calm   2.6 km/h 99% 0.0 mm 0 W/m2
08:21 10.9 °C 10.8 °C 1012.8 hPa Calm   1.1 km/h 99% 0.0 mm 0 W/m2
08:26 10.8 °C 10.7 °C 1012.8 hPa Calm   1.1 km/h 99% 0.0 mm 0 W/m2
08:31 10.8 °C 10.7 °C 1012.8 hPa Calm     99% 0.0 mm 0 W/m2
08:36 10.8 °C 10.7 °C 1012.8 hPa Calm     99% 0.0 mm 0 W/m2
08:41 10.8 °C 10.7 °C 1012.8 hPa Calm     99% 0.0 mm 0 W/m2
08:46 10.8 °C 10.7 °C 1012.8 hPa Calm     99% 0.0 mm 0 W/m2
08:51 10.8 °C 10.7 °C 1012.8 hPa Calm     99% 0.0 mm 0 W/m2
08:56 10.8 °C 10.7 °C 1012.8 hPa Calm     99% 0.0 mm 0 W/m2
09:01 10.8 °C 10.7 °C 1012.8 hPa Calm     99% 0.0 mm 0 W/m2
09:06 10.8 °C 10.7 °C 1012.8 hPa Calm     99% 0.0 mm 0 W/m2
09:11 10.7 °C 10.6 °C 1012.8 hPa Calm     99% 0.0 mm 0 W/m2
09:16 10.8 °C 10.7 °C 1012.8 hPa Calm     99% 0.0 mm 0 W/m2
09:17 10.8 °C 10.7 °C 1012.8 hPa Calm     99% 0.0 mm 0 W/m2
09:22 10.8 °C 10.7 °C 1012.4 hPa Calm     99% 0.0 mm 0 W/m2
09:27 10.7 °C 10.6 °C 1012.4 hPa Calm     99% 0.0 mm 0 W/m2
09:32 10.8 °C 10.7 °C 1012.4 hPa Calm     99% 0.0 mm 0 W/m2
09:37 10.8 °C 10.7 °C 1012.4 hPa Calm   1.1 km/h 99% 0.0 mm 0 W/m2
09:42 10.9 °C 10.8 °C 1012.4 hPa Calm   1.1 km/h 99% 0.0 mm 0 W/m2
09:47 10.8 °C 10.7 °C 1012.4 hPa Calm     99% 0.0 mm 0 W/m2
09:52 10.9 °C 10.8 °C 1012.4 hPa Calm     99% 0.0 mm 0 W/m2
09:57 10.9 °C 10.8 °C 1012.4 hPa Calm     99% 0.0 mm 0 W/m2
10:02 11.0 °C 10.7 °C 1012.4 hPa Calm     98% 0.0 mm 0 W/m2
10:07 11.1 °C 10.8 °C 1012.4 hPa Calm   2.6 km/h 98% 0.0 mm 0 W/m2
10:13 11.2 °C 10.9 °C 1012.4 hPa NNW 1.1 km/h 2.6 km/h 98% 0.0 mm 0 W/m2
10:18 11.2 °C 10.9 °C 1012.4 hPa Calm   2.6 km/h 98% 0.0 mm 0 W/m2
10:23 11.2 °C 10.9 °C 1012.4 hPa Calm   2.6 km/h 98% 0.0 mm 0 W/m2
10:28 11.2 °C 10.9 °C 1012.4 hPa Calm     98% 0.0 mm 0 W/m2
10:33 11.3 °C 11.0 °C 1012.4 hPa Calm     98% 0.0 mm 0 W/m2
10:38 11.3 °C 11.0 °C 1012.4 hPa Calm     98% 0.0 mm 0 W/m2
10:43 11.3 °C 11.0 °C 1012.1 hPa Calm     98% 0.0 mm 0 W/m2
10:48 11.3 °C 11.0 °C 1012.4 hPa Calm     98% 0.0 mm 0 W/m2
10:53 11.4 °C 11.1 °C 1012.1 hPa Calm     98% 0.0 mm 0 W/m2
10:58 11.4 °C 11.1 °C 1012.1 hPa Calm     98% 0.0 mm 0 W/m2
11:03 11.4 °C 11.1 °C 1012.1 hPa Calm     98% 0.0 mm 0 W/m2
11:08 11.4 °C 11.1 °C 1012.1 hPa SE 1.1 km/h 3.5 km/h 98% 0.0 mm 0 W/m2
11:13 11.7 °C 11.4 °C 1012.1 hPa South 7.2 km/h 13.4 km/h 98% 0.0 mm 0 W/m2
11:18 12.0 °C 11.6 °C 1012.1 hPa SSW 6.1 km/h 13.4 km/h 97% 0.0 mm 0 W/m2
11:23 12.1 °C 11.7 °C 1012.1 hPa Calm   13.4 km/h 97% 0.0 mm 0 W/m2
11:28 12.2 °C 11.7 °C 1012.1 hPa SE 5.0 km/h 13.4 km/h 97% 0.0 mm 0 W/m2
11:33 12.2 °C 11.7 °C 1012.4 hPa SE 2.6 km/h 13.4 km/h 97% 0.0 mm 0 W/m2
11:38 12.1 °C 11.7 °C 1012.1 hPa ESE 3.5 km/h 6.1 km/h 97% 0.0 mm 0 W/m2
11:43 12.1 °C 11.7 °C 1012.1 hPa ESE 2.6 km/h 6.1 km/h 97% 0.0 mm 0 W/m2
11:48 12.0 °C 11.6 °C 1012.1 hPa Calm   6.1 km/h 97% 0.0 mm 0 W/m2
11:53 11.9 °C 11.6 °C 1012.1 hPa Calm   5.0 km/h 98% 0.0 mm 0 W/m2
11:58 11.8 °C 11.5 °C 1012.1 hPa Calm   2.6 km/h 98% 0.0 mm 0 W/m2
12:03 11.8 °C 11.5 °C 1011.7 hPa Calm   1.1 km/h 98% 0.0 mm 0 W/m2
12:08 11.8 °C 11.5 °C 1012.1 hPa Calm   1.1 km/h 98% 0.0 mm 0 W/m2
12:13 11.7 °C 11.4 °C 1011.7 hPa Calm   1.1 km/h 98% 0.3 mm 0 W/m2
12:18 11.7 °C 11.4 °C 1011.7 hPa Calm   1.1 km/h 98% 0.3 mm 0 W/m2
12:23 11.7 °C 11.4 °C 1011.7 hPa South 1.1 km/h 3.5 km/h 98% 0.5 mm 0 W/m2
12:28 11.7 °C 11.4 °C 1011.7 hPa Calm   3.5 km/h 98% 1.0 mm 0 W/m2
12:33 11.7 °C 11.4 °C 1012.1 hPa Calm   3.5 km/h 98% 1.3 mm 0 W/m2
12:38 11.7 °C 11.4 °C 1012.1 hPa SSW 1.1 km/h 3.5 km/h 98% 1.3 mm 0 W/m2
12:43 11.7 °C 11.4 °C 1011.7 hPa SW 1.1 km/h 3.5 km/h 98% 1.5 mm 0 W/m2
12:48 11.7 °C 11.4 °C 1011.7 hPa Calm   3.5 km/h 98% 1.8 mm 0 W/m2
12:53 11.7 °C 11.4 °C 1012.1 hPa Calm   2.6 km/h 98% 1.8 mm 0 W/m2
12:58 11.7 °C 11.4 °C 1011.7 hPa Calm     98% 1.8 mm 0 W/m2
13:03 11.6 °C 11.3 °C 1011.7 hPa Calm     98% 1.8 mm 0 W/m2
13:08 11.6 °C 11.3 °C 1011.7 hPa Calm     98% 1.8 mm 0 W/m2
13:13 11.6 °C 11.3 °C 1011.7 hPa Calm     98% 1.5 mm 0 W/m2
13:18 11.7 °C 11.4 °C 1011.4 hPa NNW 1.1 km/h 5.0 km/h 98% 1.8 mm 0 W/m2
13:23 11.6 °C 11.3 °C 1011.7 hPa Calm   5.0 km/h 98% 1.5 mm 0 W/m2
13:28 11.7 °C 11.4 °C 1011.7 hPa SSW 17.2 km/h 24.5 km/h 98% 1.3 mm 0 W/m2
13:33 12.0 °C 11.6 °C 1011.7 hPa South 6.1 km/h 24.5 km/h 97% 1.8 mm 0 W/m2
13:38 11.7 °C 11.4 °C 1011.7 hPa SE 7.2 km/h 21.9 km/h 98% 1.8 mm 0 W/m2
13:43 11.6 °C 11.3 °C 1011.7 hPa SE 5.0 km/h 21.9 km/h 98% 1.8 mm 0 W/m2
13:48 11.7 °C 11.4 °C 1011.7 hPa SE 9.7 km/h 21.9 km/h 98% 1.5 mm 0 W/m2
13:53 11.9 °C 11.6 °C 1011.7 hPa SE 2.6 km/h 18.3 km/h 98% 1.8 mm 0 W/m2
13:58 12.3 °C 11.8 °C 1011.7 hPa SSE 12.2 km/h 24.5 km/h 97% 1.8 mm 0 W/m2
14:03 12.4 °C 11.9 °C 1011.7 hPa South 19.5 km/h 25.6 km/h 97% 1.8 mm 0 W/m2
14:08 12.4 °C 11.9 °C 1011.7 hPa South 14.8 km/h 25.6 km/h 97% 1.8 mm 0 W/m2
14:13 12.4 °C 11.9 °C 1011.7 hPa South 14.8 km/h 28.0 km/h 97% 1.8 mm 0 W/m2
14:18 12.4 °C 11.9 °C 1011.7 hPa South 12.2 km/h 30.6 km/h 97% 1.8 mm 0 W/m2
14:23 12.5 °C 12.1 °C 1012.1 hPa South 20.9 km/h 30.6 km/h 97% 1.5 mm 2 W/m2
14:28 12.5 °C 12.1 °C 1012.1 hPa South 17.2 km/h 34.3 km/h 97% 1.8 mm 3 W/m2
14:33 12.5 °C 12.1 °C 1012.1 hPa South 17.2 km/h 34.3 km/h 97% 1.3 mm 5 W/m2
14:38 12.5 °C 12.1 °C 1011.7 hPa South 24.5 km/h 30.6 km/h 97% 1.3 mm 5 W/m2
14:43 12.5 °C 12.1 °C 1012.1 hPa South 15.8 km/h 30.6 km/h 97% 1.3 mm 9 W/m2
14:48 12.5 °C 12.1 °C 1012.1 hPa South 21.9 km/h 35.6 km/h 97% 1.3 mm 13 W/m2
14:53 12.5 °C 12.1 °C 1012.1 hPa South 15.8 km/h 35.6 km/h 97% 1.3 mm 16 W/m2
14:58 12.5 °C 12.1 °C 1012.1 hPa South 14.8 km/h 35.6 km/h 97% 1.3 mm 11 W/m2
15:03 12.5 °C 12.1 °C 1012.1 hPa South 19.5 km/h 35.6 km/h 97% 1.3 mm 16 W/m2
15:08 12.5 °C 12.1 °C 1012.1 hPa SSW 23.3 km/h 36.7 km/h 97% 1.5 mm 12 W/m2
15:13 12.3 °C 11.8 °C 1012.1 hPa SSW 24.5 km/h 36.7 km/h 97% 1.3 mm 22 W/m2
15:18 12.3 °C 11.8 °C 1012.1 hPa SSW 15.8 km/h 36.7 km/h 97% 1.5 mm 12 W/m2
15:23 12.3 °C 11.8 °C 1012.1 hPa South 20.9 km/h 36.7 km/h 97% 1.5 mm 16 W/m2
15:28 12.1 °C 11.7 °C 1012.1 hPa SSW 25.6 km/h 39.3 km/h 97% 1.3 mm 22 W/m2
15:33 12.0 °C 11.6 °C 1012.1 hPa SW 17.2 km/h 39.3 km/h 97% 1.3 mm 32 W/m2
15:38 12.1 °C 11.7 °C 1012.1 hPa SSW 18.3 km/h 33.1 km/h 97% 1.3 mm 27 W/m2
15:43 12.1 °C 11.7 °C 1012.1 hPa SSW 21.9 km/h 31.7 km/h 97% 1.0 mm 37 W/m2
15:48 12.1 °C 11.7 °C 1012.4 hPa SSW 23.3 km/h 34.3 km/h 97% 1.3 mm 50 W/m2
15:53 12.0 °C 11.6 °C 1012.4 hPa SSW 14.8 km/h 34.3 km/h 97% 1.0 mm 23 W/m2
15:58 12.0 °C 11.6 °C 1012.4 hPa SSW 23.3 km/h 33.1 km/h 97% 1.3 mm 30 W/m2
16:03 12.0 °C 11.6 °C 1012.4 hPa SW 23.3 km/h 33.1 km/h 97% 1.3 mm 44 W/m2
16:08 12.0 °C 11.6 °C 1012.4 hPa SW 21.9 km/h 37.8 km/h 97% 1.3 mm 37 W/m2
16:13 11.9 °C 11.6 °C 1012.8 hPa SSW 17.2 km/h 37.8 km/h 98% 1.3 mm 49 W/m2
16:18 11.8 °C 11.5 °C 1012.4 hPa SSW 20.9 km/h 37.8 km/h 98% 1.3 mm 50 W/m2
16:23 11.8 °C 11.5 °C 1012.4 hPa SSW 21.9 km/h 36.7 km/h 98% 1.3 mm 67 W/m2
16:28 11.8 °C 11.5 °C 1012.4 hPa SSW 27.0 km/h 36.7 km/h 98% 1.5 mm 55 W/m2
16:33 11.8 °C 11.5 °C 1012.4 hPa SSW 18.3 km/h 39.3 km/h 98% 1.5 mm 48 W/m2
16:38 11.8 °C 11.5 °C 1012.4 hPa SSW 19.5 km/h 40.4 km/h 98% 1.8 mm 39 W/m2
16:42 11.7 °C 11.4 °C 1012.4 hPa SW 28.0 km/h 40.4 km/h 98% 1.8 mm 37 W/m2
16:47 11.7 °C 11.4 °C 1012.4 hPa SSW 15.8 km/h 36.7 km/h 98% 1.8 mm 48 W/m2
16:52 11.7 °C 11.4 °C 1012.8 hPa SSW 20.9 km/h 34.3 km/h 98% 1.8 mm 63 W/m2
16:57 11.7 °C 11.4 °C 1012.4 hPa SW 23.3 km/h 33.1 km/h 98% 1.8 mm 54 W/m2
17:02 11.6 °C 11.3 °C 1012.8 hPa SSW 23.3 km/h 34.3 km/h 98% 1.8 mm 79 W/m2
17:07 11.5 °C 11.2 °C 1012.8 hPa SW 19.5 km/h 34.3 km/h 98% 1.8 mm 58 W/m2
17:13 11.5 °C 11.2 °C 1012.8 hPa SW 17.2 km/h 31.7 km/h 98% 2.0 mm 63 W/m2
17:18 11.6 °C 11.3 °C 1012.4 hPa SW 18.3 km/h 31.7 km/h 98% 1.8 mm 83 W/m2
17:23 11.6 °C 11.3 °C 1012.8 hPa SW 17.2 km/h 37.8 km/h 98% 1.8 mm 45 W/m2
17:28 11.7 °C 11.4 °C 1012.4 hPa SW 14.8 km/h 37.8 km/h 98% 1.5 mm 102 W/m2
17:33 11.6 °C 11.3 °C 1012.4 hPa WSW 20.9 km/h 30.6 km/h 98% 1.8 mm 97 W/m2
17:38 11.7 °C 11.4 °C 1012.4 hPa SW 15.8 km/h 30.6 km/h 98% 1.5 mm 82 W/m2
17:43 11.7 °C 11.4 °C 1012.4 hPa SW 25.6 km/h 33.1 km/h 98% 1.5 mm 102 W/m2
17:48 11.7 °C 11.4 °C 1012.1 hPa SW 19.5 km/h 33.1 km/h 98% 1.3 mm 72 W/m2
17:53 11.7 °C 11.4 °C 1012.1 hPa SW 19.5 km/h 33.1 km/h 98% 1.3 mm 99 W/m2
17:58 11.7 °C 11.4 °C 1012.1 hPa SW 27.0 km/h 33.1 km/h 98% 1.3 mm 61 W/m2
18:03 11.7 °C 11.4 °C 1012.1 hPa SW 25.6 km/h 34.3 km/h 98% 1.3 mm 86 W/m2
18:08 11.7 °C 11.4 °C 1012.1 hPa SW 20.9 km/h 34.3 km/h 98% 1.3 mm 86 W/m2
18:13 11.7 °C 11.4 °C 1012.1 hPa SW 27.0 km/h 34.3 km/h 98% 1.0 mm 76 W/m2
18:18 11.8 °C 11.5 °C 1012.1 hPa SW 20.9 km/h 37.8 km/h 98% 1.0 mm 112 W/m2
18:23 11.8 °C 11.5 °C 1012.1 hPa SW 24.5 km/h 37.8 km/h 98% 1.0 mm 123 W/m2
18:28 11.9 °C 11.6 °C 1012.1 hPa SW 24.5 km/h 41.7 km/h 98% 1.0 mm 150 W/m2
18:33 12.0 °C 11.6 °C 1012.1 hPa SW 19.5 km/h 41.7 km/h 97% 0.5 mm 110 W/m2
18:36 12.0 °C 11.6 °C 1012.1 hPa SW 19.5 km/h 36.7 km/h 97% 0.5 mm 124 W/m2
18:41 12.0 °C 11.6 °C 1012.1 hPa SW 21.9 km/h 36.7 km/h 97% 1.0 mm 88 W/m2
18:46 12.0 °C 11.6 °C 1012.1 hPa SW 17.2 km/h 36.7 km/h 97% 1.0 mm 96 W/m2
18:51 11.9 °C 11.6 °C 1011.7 hPa SW 15.8 km/h 30.6 km/h 98% 0.5 mm 79 W/m2
18:56 11.7 °C 11.4 °C 1011.7 hPa SW 14.8 km/h 28.0 km/h 98% 0.5 mm 85 W/m2
19:01 11.6 °C 11.3 °C 1011.4 hPa SW 9.7 km/h 28.0 km/h 98% 0.5 mm 141 W/m2
19:06 11.7 °C 11.4 °C 1011.4 hPa SW 14.8 km/h 28.0 km/h 98% 0.3 mm 141 W/m2
19:11 11.7 °C 11.4 °C 1011.7 hPa WSW 19.5 km/h 29.4 km/h 98% 0.5 mm 90 W/m2
19:16 11.7 °C 11.4 °C 1011.4 hPa WSW 18.3 km/h 29.4 km/h 98% 0.5 mm 125 W/m2
19:21 11.7 °C 11.4 °C 1011.4 hPa WSW 20.9 km/h 30.6 km/h 98% 0.5 mm 94 W/m2
19:26 11.7 °C 11.4 °C 1011.4 hPa West 17.2 km/h 30.6 km/h 98% 0.5 mm 137 W/m2
19:31 11.7 °C 11.4 °C 1011.1 hPa WSW 18.3 km/h 30.6 km/h 98% 0.5 mm 104 W/m2
19:36 11.8 °C 11.5 °C 1011.4 hPa WSW 19.5 km/h 29.4 km/h 98% 0.5 mm 115 W/m2
19:41 11.7 °C 11.4 °C 1011.1 hPa West 13.4 km/h 28.0 km/h 98% 0.3 mm 116 W/m2
19:46 11.8 °C 11.5 °C 1011.1 hPa WSW 15.8 km/h 27.0 km/h 98% 0.3 mm 86 W/m2
19:51 11.7 °C 11.4 °C 1011.1 hPa SW 12.2 km/h 24.5 km/h 98% 0.3 mm 72 W/m2
19:56 11.7 °C 11.4 °C 1011.1 hPa WSW 13.4 km/h 25.6 km/h 98% 0.3 mm 75 W/m2
20:01 11.7 °C 11.4 °C 1010.7 hPa West 12.2 km/h 25.6 km/h 98% 0.3 mm 59 W/m2
20:06 11.7 °C 11.4 °C 1010.7 hPa West 12.2 km/h 27.0 km/h 98% 0.5 mm 96 W/m2
20:11 11.7 °C 11.4 °C 1010.7 hPa WSW 12.2 km/h 27.0 km/h 98% 0.3 mm 94 W/m2
20:16 11.7 °C 11.4 °C 1010.7 hPa WSW 15.8 km/h 25.6 km/h 98% 0.3 mm 89 W/m2
20:21 12.0 °C 11.6 °C 1010.7 hPa SW 12.2 km/h 24.5 km/h 97% 0.3 mm 118 W/m2
20:26 12.1 °C 11.7 °C 1010.7 hPa SW 15.8 km/h 24.5 km/h 97% 0.3 mm 152 W/m2
20:29 12.2 °C 11.7 °C 1010.7 hPa SW 17.2 km/h 29.4 km/h 97% 0.3 mm 137 W/m2
20:34 12.2 °C 11.7 °C 1010.7 hPa SW 20.9 km/h 30.6 km/h 97% 0.3 mm 168 W/m2
20:39 12.3 °C 11.8 °C 1010.4 hPa WSW 12.2 km/h 30.6 km/h 97% 0.3 mm 173 W/m2
20:45 12.4 °C 11.9 °C 1010.4 hPa WSW 14.8 km/h 30.6 km/h 97% 0.3 mm 185 W/m2
20:50 12.5 °C 12.1 °C 1010.4 hPa WSW 17.2 km/h 25.6 km/h 97% 0.3 mm 193 W/m2
20:55 12.7 °C 12.2 °C 1010.4 hPa SW 17.2 km/h 23.3 km/h 97% 0.3 mm 158 W/m2
21:00 12.6 °C 12.0 °C 1010.4 hPa SW 15.8 km/h 30.6 km/h 96% 0.3 mm 196 W/m2
21:05 12.8 °C 12.0 °C 1010.0 hPa SW 15.8 km/h 30.6 km/h 95% 0.0 mm 222 W/m2
21:10 13.0 °C 12.1 °C 1010.4 hPa SW 13.4 km/h 28.0 km/h 94% 0.0 mm 216 W/m2
21:15 13.1 °C 12.0 °C 1010.0 hPa SW 13.4 km/h 29.4 km/h 93% 0.3 mm 223 W/m2
21:20 13.1 °C 11.8 °C 1010.0 hPa SSW 18.3 km/h 29.4 km/h 92% 0.3 mm 208 W/m2
21:25 13.2 °C 11.8 °C 1010.0 hPa SW 18.3 km/h 29.4 km/h 91% 0.3 mm 193 W/m2
21:30 13.2 °C 11.8 °C 1010.4 hPa SW 15.8 km/h 29.4 km/h 91% 0.3 mm 186 W/m2
21:35 13.1 °C 11.5 °C 1010.4 hPa SW 14.8 km/h 33.1 km/h 90% 0.3 mm 175 W/m2
21:40 13.1 °C 11.5 °C 1010.0 hPa SW 13.4 km/h 33.1 km/h 90% 0.3 mm 174 W/m2
21:45 13.1 °C 11.3 °C 1010.0 hPa SW 14.8 km/h 25.6 km/h 89% 0.3 mm 180 W/m2
21:50 13.3 °C 11.6 °C 1010.0 hPa WSW 14.8 km/h 24.5 km/h 89% 0.3 mm 193 W/m2
21:55 13.3 °C 11.6 °C 1010.0 hPa SW 12.2 km/h 21.9 km/h 89% 0.3 mm 150 W/m2
22:00 13.2 °C 11.6 °C 1010.0 hPa SW 11.1 km/h 25.6 km/h 90% 0.3 mm 139 W/m2
22:05 13.1 °C 11.5 °C 1009.7 hPa SW 8.7 km/h 25.6 km/h 90% 0.3 mm 149 W/m2
22:10 13.1 °C 11.7 °C 1009.7 hPa SW 13.4 km/h 24.5 km/h 91% 0.0 mm 142 W/m2
22:15 13.1 °C 11.5 °C 1009.7 hPa WSW 9.7 km/h 24.5 km/h 90% 0.0 mm 103 W/m2
22:20 13.2 °C 11.8 °C 1009.7 hPa WSW 12.2 km/h 19.5 km/h 91% 0.0 mm 89 W/m2
22:25 13.1 °C 11.5 °C 1009.7 hPa SW 11.1 km/h 21.9 km/h 90% 0.0 mm 47 W/m2
22:30 13.0 °C 11.4 °C 1009.7 hPa SW 17.2 km/h 21.9 km/h 90% 0.0 mm 102 W/m2
22:35 12.9 °C 11.4 °C 1009.7 hPa SW 11.1 km/h 25.6 km/h 91% 0.0 mm 102 W/m2
22:40 13.0 °C 11.6 °C 1009.4 hPa SW 11.1 km/h 25.6 km/h 91% 0.0 mm 100 W/m2
22:45 13.0 °C 11.7 °C 1009.4 hPa SW 11.1 km/h 21.9 km/h 92% 0.0 mm 126 W/m2
22:47 13.1 °C 11.8 °C 1009.4 hPa SW 13.4 km/h 21.9 km/h 92% 0.0 mm 135 W/m2
22:52 13.2 °C 11.8 °C 1009.4 hPa SW 15.8 km/h 25.6 km/h 91% 0.0 mm 135 W/m2
22:57 13.1 °C 11.7 °C 1009.7 hPa WSW 14.8 km/h 25.6 km/h 91% 0.0 mm 175 W/m2
23:02 13.2 °C 11.6 °C 1009.4 hPa SW 9.7 km/h 25.6 km/h 90% 0.0 mm 149 W/m2
23:07 13.3 °C 11.6 °C 1009.4 hPa WSW 12.2 km/h 25.6 km/h 89% 0.0 mm 131 W/m2
23:12 13.3 °C 11.6 °C 1009.4 hPa WSW 13.4 km/h 25.6 km/h 89% 0.0 mm 113 W/m2
23:17 13.3 °C 11.6 °C 1009.4 hPa WSW 6.1 km/h 25.6 km/h 89% 0.0 mm 121 W/m2
23:22 13.3 °C 11.7 °C 1009.4 hPa WSW 9.7 km/h 25.6 km/h 90% 0.0 mm 123 W/m2
23:27 13.4 °C 11.8 °C 1009.4 hPa WSW 14.8 km/h 20.9 km/h 90% 0.0 mm 99 W/m2
23:32 13.3 °C 11.6 °C 1009.4 hPa WSW 15.8 km/h 24.5 km/h 89% 0.0 mm 111 W/m2
23:37 13.2 °C 11.4 °C 1009.4 hPa West 13.4 km/h 24.5 km/h 89% 0.0 mm 104 W/m2
23:42 13.2 °C 11.4 °C 1009.0 hPa WSW 14.8 km/h 23.3 km/h 89% 0.0 mm 92 W/m2
23:47 13.2 °C 11.4 °C 1009.0 hPa SW 13.4 km/h 23.3 km/h 89% 0.0 mm 86 W/m2
23:52 13.3 °C 11.6 °C 1009.0 hPa SW 14.8 km/h 20.9 km/h 89% 0.0 mm 75 W/m2
23:57 13.2 °C 11.4 °C 1009.0 hPa SW 6.1 km/h 23.3 km/h 89% 0.0 mm 76 W/m2
Northern Hawkes Bay. New Zealand Historic Data
Compliments of Weather Underground - 2 mb